Wilbur Springs, California
Current Conditions -  °F | °C
As of 6:53 PM on Tuesday 25 Nov 2014 (Local Time) from KOVE Reporting Station
Clear Clear  
Wind Chill: 52°   Ceiling: Unl
Heat Index: 52°   Visibility: 10mi
Dew Point: 45°   Wind: 0mph
Humidity: 77%   Direction: NA
Pressure: 30.39"   Gusts: NA
Location:  39.1016°N, 122.307°W
Report Text: KOVE 260253Z AUTO 00000KT 10SM CLR 11/07 A3039 RMK AO2 SLP293 T01110072 55004
Loading
Personal Weather Stations






























Interactive Weather Map New forecast layout! Learn more

10-Day Weather Forecast

Advertisements
Track Severe Weather on mobile